Esperance, NY (12066)

9:06 PM EDT on October 24, 2014 (GMT -0400)
Sloansville/Town of Charleston | Change Station
CLOSE
Current Station
Personal Weather Station
Location: Sloansville, NY
Elevation: 1380 ft
Nearby Weather Stations

Elev 1380 ft 42.79 °N, 74.34 °W | Updated 6 minutes ago

Mostly Cloudy
Mostly Cloudy
47.8 °F
Feels Like 48 °F
N
2.0
Wind Variable Wind from NW
Gusts 8.0 mph

Today
High -- | Low -- °F
--% Chance of Precip.
Yesterday
High -- | Low -- °F
Precip. -- in
7:21 AM 6:00 PM
New Moon, 1% visible
Pressure 29.87 in
Visibility 10.0 miles
Clouds Few 900 ft
Overcast 5000 ft
Windchill 48 °F
Dew Point 39 °F
Humidity 71%
Rainfall 0.04 in
Snow Depth Not available.
UV 0 out of 12
Pollen .10 out of 12
Ozone Good
PM2.5 Good
Flu Activity Sporadic
METAR KALB 250051Z 33005KT 10SM VCFG FEW009 OVC050 08/07 A2987 RMK AO2 SLP115 VCFG S AND NW T00830067 $

More Conditions Fewer Conditions

Pressure 29.87 in
Visibility 10.0 miles
Clouds Few 900 ft
Overcast 5000 ft
Windchill 48 °F
Dew Point 39 °F
Humidity 71%
Rainfall 0.04 in
Snow Depth Not available.
UV 0 out of 12
Pollen .10 out of 12
Ozone Good
PM2.5 Good
Flu Activity Sporadic
METAR KALB 250051Z 33005KT 10SM VCFG FEW009 OVC050 08/07 A2987 RMK AO2 SLP115 VCFG S AND NW T00830067 $

More Conditions Fewer Conditions

10-Day Weather Forecast

Almanac

Astronomy

Oct. 24, 2014 Rise Set
Actual Time 7:21 AM EDT 6:00 PM EDT
Civil Twilight 6:52 AM EDT 6:29 PM EDT
Nautical Twilight 6:19 AM EDT 7:02 PM EDT
Astronomical Twilight 5:46 AM EDT 7:35 PM EDT
Moon 7:58 AM EDT (10/24) 6:38 PM EDT (10/24)
Length of Visible Light 11h 37m
Length of Day
10h 39m
Tomorrow will be 2m 42s shorter.
New Moon, 1% of the Moon is Illuminated
Today
New Moon
Oct 30
First Quarter
Nov 6
Full
Nov 14
Last Quarter
Nov 22
New

Today's Extremes

State Highs State Lows

Community

WunderPhotos

Upload Photos

1,764,737 photos uploaded!

WunderBlogs® & News

Nearby

Air Quality

  Air Quality AQ Index Pollutant
Yesterday Good
OZONE
Yesterday Good
PM2.5
Current Good
PM2.5
Current Good
OZONE
Friday Good
PM2.5
Saturday Good
PM2.5
Sunday Good
PM2.5
Monday Good
PM2.5

Snow Depth

Station Depth Elevation
No new snow has been reported.

Earthquake Activity

City Distance Mag. Time & Date
No recent earthquake activity has been reported nearby.
Minimum magnitude displayed is 2.5.

Coastal Water Temperatures

Place Temperature
No Stations Reporting

Nearby Weather Stations